sensor_id;sensor_type;location;lat;lon;timestamp;P1;durP1;ratioP1;P2;durP2;ratioP2
32976;SDS011;47687;50.842;4.450;2022-09-12T00:01:01;0.90;;;0.90;;
32976;SDS011;47687;50.842;4.450;2022-09-12T00:03:28;1.35;;;1.25;;
32976;SDS011;47687;50.842;4.450;2022-09-12T00:05:54;1.15;;;0.85;;
32976;SDS011;47687;50.842;4.450;2022-09-12T00:08:19;1.92;;;1.48;;
32976;SDS011;47687;50.842;4.450;2022-09-12T00:10:45;1.52;;;1.42;;
32976;SDS011;47687;50.842;4.450;2022-09-12T00:13:10;1.63;;;1.25;;
32976;SDS011;47687;50.842;4.450;2022-09-12T00:15:37;0.95;;;0.95;;
32976;SDS011;47687;50.842;4.450;2022-09-12T00:18:03;1.52;;;1.33;;
32976;SDS011;47687;50.842;4.450;2022-09-12T00:20:29;1.90;;;1.38;;
32976;SDS011;47687;50.842;4.450;2022-09-12T00:22:54;1.45;;;1.00;;
32976;SDS011;47687;50.842;4.450;2022-09-12T00:25:20;1.35;;;1.23;;
32976;SDS011;47687;50.842;4.450;2022-09-12T00:27:46;1.27;;;1.17;;
32976;SDS011;47687;50.842;4.450;2022-09-12T00:30:11;1.65;;;1.38;;
32976;SDS011;47687;50.842;4.450;2022-09-12T00:32:37;0.93;;;0.93;;
32976;SDS011;47687;50.842;4.450;2022-09-12T00:35:03;1.55;;;0.98;;
32976;SDS011;47687;50.842;4.450;2022-09-12T00:37:28;1.30;;;1.20;;
32976;SDS011;47687;50.842;4.450;2022-09-12T00:39:55;1.70;;;1.38;;
32976;SDS011;47687;50.842;4.450;2022-09-12T00:42:21;0.57;;;0.57;;
32976;SDS011;47687;50.842;4.450;2022-09-12T00:44:48;2.72;;;1.48;;
32976;SDS011;47687;50.842;4.450;2022-09-12T00:47:49;0.95;;;0.93;;
32976;SDS011;47687;50.842;4.450;2022-09-12T00:50:08;2.15;;;1.95;;
32976;SDS011;47687;50.842;4.450;2022-09-12T00:52:45;1.10;;;0.90;;
32976;SDS011;47687;50.842;4.450;2022-09-12T00:55:28;0.75;;;0.73;;
32976;SDS011;47687;50.842;4.450;2022-09-12T00:58:11;0.88;;;0.88;;
32976;SDS011;47687;50.842;4.450;2022-09-12T01:00:43;0.57;;;0.57;;
32976;SDS011;47687;50.842;4.450;2022-09-12T01:03:10;0.90;;;0.90;;
32976;SDS011;47687;50.842;4.450;2022-09-12T01:05:39;1.58;;;1.48;;
32976;SDS011;47687;50.842;4.450;2022-09-12T01:08:16;0.85;;;0.85;;
32976;SDS011;47687;50.842;4.450;2022-09-12T01:10:42;1.13;;;1.02;;
32976;SDS011;47687;50.842;4.450;2022-09-12T01:13:08;0.88;;;0.88;;
32976;SDS011;47687;50.842;4.450;2022-09-12T01:15:38;1.40;;;1.30;;
32976;SDS011;47687;50.842;4.450;2022-09-12T01:29:02;2.85;;;1.60;;
32976;SDS011;47687;50.842;4.450;2022-09-12T01:34:43;1.27;;;1.10;;
32976;SDS011;47687;50.842;4.450;2022-09-12T01:37:30;1.55;;;1.45;;
32976;SDS011;47687;50.842;4.450;2022-09-12T01:40:11;1.48;;;1.38;;
32976;SDS011;47687;50.842;4.450;2022-09-12T01:45:46;3.00;;;1.15;;
32976;SDS011;47687;50.842;4.450;2022-09-12T01:48:37;1.92;;;1.30;;
32976;SDS011;47687;50.842;4.450;2022-09-12T01:51:19;1.15;;;1.05;;
32976;SDS011;47687;50.842;4.450;2022-09-12T01:53:53;2.22;;;1.58;;
32976;SDS011;47687;50.842;4.450;2022-09-12T01:56:28;1.30;;;1.20;;
32976;SDS011;47687;50.842;4.450;2022-09-12T02:01:29;0.98;;;0.90;;
32976;SDS011;47687;50.842;4.450;2022-09-12T02:04:08;1.77;;;1.00;;
32976;SDS011;47687;50.842;4.450;2022-09-12T02:06:43;1.05;;;0.95;;
32976;SDS011;47687;50.842;4.450;2022-09-12T02:09:12;1.98;;;1.15;;
32976;SDS011;47687;50.842;4.450;2022-09-12T02:11:52;1.85;;;1.67;;
32976;SDS011;47687;50.842;4.450;2022-09-12T02:14:23;1.33;;;1.13;;
32976;SDS011;47687;50.842;4.450;2022-09-12T02:17:05;0.70;;;0.70;;
32976;SDS011;47687;50.842;4.450;2022-09-12T02:19:36;3.33;;;1.92;;
32976;SDS011;47687;50.842;4.450;2022-09-12T02:22:09;1.02;;;1.02;;
32976;SDS011;47687;50.842;4.450;2022-09-12T02:24:40;2.47;;;1.58;;
32976;SDS011;47687;50.842;4.450;2022-09-12T02:29:38;1.42;;;1.33;;
32976;SDS011;47687;50.842;4.450;2022-09-12T02:32:05;1.15;;;1.08;;
32976;SDS011;47687;50.842;4.450;2022-09-12T02:40:04;1.05;;;0.90;;
32976;SDS011;47687;50.842;4.450;2022-09-12T02:42:32;2.20;;;0.90;;
32976;SDS011;47687;50.842;4.450;2022-09-12T02:44:59;1.33;;;1.00;;
32976;SDS011;47687;50.842;4.450;2022-09-12T02:47:30;2.38;;;1.45;;
32976;SDS011;47687;50.842;4.450;2022-09-12T02:50:03;2.00;;;1.75;;
32976;SDS011;47687;50.842;4.450;2022-09-12T02:52:29;1.63;;;1.27;;
32976;SDS011;47687;50.842;4.450;2022-09-12T02:54:56;1.02;;;0.93;;
32976;SDS011;47687;50.842;4.450;2022-09-12T02:57:22;0.85;;;0.85;;
32976;SDS011;47687;50.842;4.450;2022-09-12T02:59:48;0.60;;;0.60;;
32976;SDS011;47687;50.842;4.450;2022-09-12T03:02:24;2.00;;;1.15;;
32976;SDS011;47687;50.842;4.450;2022-09-12T03:15:58;1.33;;;1.23;;
32976;SDS011;47687;50.842;4.450;2022-09-12T03:18:50;1.83;;;1.40;;
32976;SDS011;47687;50.842;4.450;2022-09-12T03:24:04;0.90;;;0.90;;
32976;SDS011;47687;50.842;4.450;2022-09-12T03:26:38;2.85;;;1.10;;
32976;SDS011;47687;50.842;4.450;2022-09-12T03:29:07;1.00;;;0.93;;
32976;SDS011;47687;50.842;4.450;2022-09-12T03:31:35;1.15;;;1.10;;
32976;SDS011;47687;50.842;4.450;2022-09-12T03:34:01;3.08;;;1.98;;
32976;SDS011;47687;50.842;4.450;2022-09-12T03:36:28;1.30;;;1.17;;
32976;SDS011;47687;50.842;4.450;2022-09-12T03:38:54;1.02;;;0.95;;
32976;SDS011;47687;50.842;4.450;2022-09-12T03:41:20;0.73;;;0.73;;
32976;SDS011;47687;50.842;4.450;2022-09-12T03:43:46;0.65;;;0.65;;
32976;SDS011;47687;50.842;4.450;2022-09-12T03:46:12;7.80;;;1.52;;
32976;SDS011;47687;50.842;4.450;2022-09-12T03:48:38;1.77;;;1.25;;
32976;SDS011;47687;50.842;4.450;2022-09-12T03:51:06;2.70;;;1.48;;
32976;SDS011;47687;50.842;4.450;2022-09-12T03:53:32;0.82;;;0.82;;
32976;SDS011;47687;50.842;4.450;2022-09-12T03:55:58;1.05;;;1.02;;
32976;SDS011;47687;50.842;4.450;2022-09-12T03:58:27;4.35;;;1.83;;
32976;SDS011;47687;50.842;4.450;2022-09-12T04:01:09;1.17;;;0.98;;
32976;SDS011;47687;50.842;4.450;2022-09-12T04:03:38;1.20;;;1.05;;
32976;SDS011;47687;50.842;4.450;2022-09-12T04:06:05;1.58;;;1.48;;
32976;SDS011;47687;50.842;4.450;2022-09-12T04:08:36;1.40;;;1.30;;
32976;SDS011;47687;50.842;4.450;2022-09-12T04:11:06;0.70;;;0.70;;
32976;SDS011;47687;50.842;4.450;2022-09-12T04:13:36;1.17;;;1.13;;
32976;SDS011;47687;50.842;4.450;2022-09-12T04:16:03;1.05;;;1.00;;
32976;SDS011;47687;50.842;4.450;2022-09-12T04:18:30;0.95;;;0.93;;
32976;SDS011;47687;50.842;4.450;2022-09-12T04:20:56;1.35;;;1.25;;
32976;SDS011;47687;50.842;4.450;2022-09-12T04:23:22;1.42;;;1.33;;
32976;SDS011;47687;50.842;4.450;2022-09-12T04:25:54;1.35;;;1.25;;
32976;SDS011;47687;50.842;4.450;2022-09-12T04:28:21;0.85;;;0.82;;
32976;SDS011;47687;50.842;4.450;2022-09-12T04:30:48;1.65;;;1.35;;
32976;SDS011;47687;50.842;4.450;2022-09-12T04:33:15;3.50;;;1.88;;
32976;SDS011;47687;50.842;4.450;2022-09-12T04:35:41;2.08;;;1.48;;
32976;SDS011;47687;50.842;4.450;2022-09-12T04:38:07;2.30;;;1.38;;
32976;SDS011;47687;50.842;4.450;2022-09-12T04:40:32;4.53;;;1.63;;
32976;SDS011;47687;50.842;4.450;2022-09-12T04:42:59;2.97;;;1.23;;
32976;SDS011;47687;50.842;4.450;2022-09-12T04:45:24;1.70;;;1.60;;
32976;SDS011;47687;50.842;4.450;2022-09-12T04:47:50;1.95;;;1.75;;
32976;SDS011;47687;50.842;4.450;2022-09-12T04:50:16;1.85;;;1.40;;
32976;SDS011;47687;50.842;4.450;2022-09-12T04:52:42;1.83;;;1.15;;
32976;SDS011;47687;50.842;4.450;2022-09-12T04:55:08;2.25;;;1.60;;
32976;SDS011;47687;50.842;4.450;2022-09-12T04:57:34;2.97;;;1.25;;
32976;SDS011;47687;50.842;4.450;2022-09-12T05:00:00;4.43;;;2.47;;
32976;SDS011;47687;50.842;4.450;2022-09-12T05:02:29;1.90;;;1.80;;
32976;SDS011;47687;50.842;4.450;2022-09-12T05:04:54;1.70;;;1.45;;
32976;SDS011;47687;50.842;4.450;2022-09-12T05:07:21;8.05;;;1.45;;
32976;SDS011;47687;50.842;4.450;2022-09-12T05:09:47;2.50;;;1.65;;
32976;SDS011;47687;50.842;4.450;2022-09-12T05:12:13;2.30;;;1.50;;
32976;SDS011;47687;50.842;4.450;2022-09-12T05:14:38;2.08;;;1.52;;
32976;SDS011;47687;50.842;4.450;2022-09-12T05:17:04;2.53;;;2.33;;
32976;SDS011;47687;50.842;4.450;2022-09-12T05:19:30;1.02;;;0.98;;
32976;SDS011;47687;50.842;4.450;2022-09-12T05:21:57;2.28;;;1.55;;
32976;SDS011;47687;50.842;4.450;2022-09-12T05:24:23;2.88;;;1.23;;
32976;SDS011;47687;50.842;4.450;2022-09-12T05:26:49;1.88;;;1.60;;
32976;SDS011;47687;50.842;4.450;2022-09-12T05:29:14;2.47;;;1.48;;
32976;SDS011;47687;50.842;4.450;2022-09-12T05:31:40;2.70;;;2.03;;
32976;SDS011;47687;50.842;4.450;2022-09-12T05:34:06;2.65;;;2.42;;
32976;SDS011;47687;50.842;4.450;2022-09-12T05:36:33;1.45;;;1.33;;
32976;SDS011;47687;50.842;4.450;2022-09-12T05:38:59;1.15;;;1.05;;
32976;SDS011;47687;50.842;4.450;2022-09-12T05:41:26;1.58;;;1.48;;
32976;SDS011;47687;50.842;4.450;2022-09-12T05:44:04;2.92;;;2.50;;
32976;SDS011;47687;50.842;4.450;2022-09-12T05:46:35;2.40;;;1.65;;
32976;SDS011;47687;50.842;4.450;2022-09-12T05:49:03;2.25;;;2.05;;
32976;SDS011;47687;50.842;4.450;2022-09-12T05:51:32;5.00;;;2.65;;
32976;SDS011;47687;50.842;4.450;2022-09-12T05:54:00;4.15;;;3.17;;
32976;SDS011;47687;50.842;4.450;2022-09-12T05:56:30;3.50;;;2.60;;
32976;SDS011;47687;50.842;4.450;2022-09-12T05:58:59;3.38;;;2.75;;
32976;SDS011;47687;50.842;4.450;2022-09-12T06:01:27;5.85;;;2.55;;
32976;SDS011;47687;50.842;4.450;2022-09-12T06:03:55;4.50;;;3.15;;
32976;SDS011;47687;50.842;4.450;2022-09-12T06:06:24;1.90;;;1.70;;
32976;SDS011;47687;50.842;4.450;2022-09-12T06:08:52;2.65;;;2.45;;
32976;SDS011;47687;50.842;4.450;2022-09-12T06:11:21;1.83;;;1.57;;
32976;SDS011;47687;50.842;4.450;2022-09-12T06:13:50;8.00;;;3.20;;
32976;SDS011;47687;50.842;4.450;2022-09-12T06:16:20;2.90;;;2.67;;
32976;SDS011;47687;50.842;4.450;2022-09-12T06:18:53;3.78;;;2.50;;
32976;SDS011;47687;50.842;4.450;2022-09-12T06:21:20;5.22;;;3.05;;
32976;SDS011;47687;50.842;4.450;2022-09-12T06:23:47;3.08;;;2.78;;
32976;SDS011;47687;50.842;4.450;2022-09-12T06:26:13;3.05;;;2.67;;
32976;SDS011;47687;50.842;4.450;2022-09-12T06:28:41;4.75;;;2.05;;
32976;SDS011;47687;50.842;4.450;2022-09-12T06:31:09;2.03;;;1.92;;
32976;SDS011;47687;50.842;4.450;2022-09-12T06:33:40;2.60;;;2.40;;
32976;SDS011;47687;50.842;4.450;2022-09-12T06:36:12;3.50;;;2.57;;
32976;SDS011;47687;50.842;4.450;2022-09-12T06:38:43;1.90;;;1.80;;
32976;SDS011;47687;50.842;4.450;2022-09-12T06:41:12;3.15;;;2.53;;
32976;SDS011;47687;50.842;4.450;2022-09-12T06:43:39;2.15;;;1.83;;
32976;SDS011;47687;50.842;4.450;2022-09-12T06:46:06;4.35;;;3.03;;
32976;SDS011;47687;50.842;4.450;2022-09-12T06:48:32;3.33;;;2.47;;
32976;SDS011;47687;50.842;4.450;2022-09-12T06:51:19;5.07;;;3.13;;
32976;SDS011;47687;50.842;4.450;2022-09-12T06:53:47;7.60;;;2.53;;
32976;SDS011;47687;50.842;4.450;2022-09-12T06:56:14;3.58;;;2.35;;
32976;SDS011;47687;50.842;4.450;2022-09-12T06:58:43;4.50;;;1.80;;
32976;SDS011;47687;50.842;4.450;2022-09-12T07:01:22;2.22;;;1.75;;
32976;SDS011;47687;50.842;4.450;2022-09-12T07:03:50;4.70;;;2.72;;
32976;SDS011;47687;50.842;4.450;2022-09-12T07:06:20;2.30;;;2.15;;
32976;SDS011;47687;50.842;4.450;2022-09-12T07:08:48;2.97;;;2.17;;
32976;SDS011;47687;50.842;4.450;2022-09-12T07:11:19;1.48;;;1.38;;
32976;SDS011;47687;50.842;4.450;2022-09-12T07:13:47;1.92;;;1.67;;
32976;SDS011;47687;50.842;4.450;2022-09-12T07:16:17;1.70;;;1.38;;
32976;SDS011;47687;50.842;4.450;2022-09-12T07:18:44;2.88;;;1.40;;
32976;SDS011;47687;50.842;4.450;2022-09-12T07:21:13;1.42;;;1.33;;
32976;SDS011;47687;50.842;4.450;2022-09-12T07:23:39;1.63;;;1.52;;
32976;SDS011;47687;50.842;4.450;2022-09-12T07:26:06;1.33;;;1.23;;
32976;SDS011;47687;50.842;4.450;2022-09-12T07:28:34;2.80;;;2.25;;
32976;SDS011;47687;50.842;4.450;2022-09-12T07:31:04;0.90;;;0.90;;
32976;SDS011;47687;50.842;4.450;2022-09-12T07:36:13;1.52;;;1.42;;
32976;SDS011;47687;50.842;4.450;2022-09-12T07:38:40;1.25;;;1.15;;
32976;SDS011;47687;50.842;4.450;2022-09-12T07:41:13;3.28;;;1.83;;
32976;SDS011;47687;50.842;4.450;2022-09-12T07:43:43;2.75;;;2.25;;
32976;SDS011;47687;50.842;4.450;2022-09-12T07:46:09;0.50;;;0.50;;
32976;SDS011;47687;50.842;4.450;2022-09-12T07:48:35;0.70;;;0.70;;
32976;SDS011;47687;50.842;4.450;2022-09-12T07:51:06;1.27;;;1.17;;
32976;SDS011;47687;50.842;4.450;2022-09-12T07:53:38;1.80;;;1.48;;
32976;SDS011;47687;50.842;4.450;2022-09-12T07:56:06;0.30;;;0.30;;
32976;SDS011;47687;50.842;4.450;2022-09-12T07:58:34;0.60;;;0.60;;
32976;SDS011;47687;50.842;4.450;2022-09-12T08:01:04;4.97;;;0.98;;
32976;SDS011;47687;50.842;4.450;2022-09-12T08:03:32;0.60;;;0.57;;
32976;SDS011;47687;50.842;4.450;2022-09-12T08:08:28;2.60;;;1.65;;
32976;SDS011;47687;50.842;4.450;2022-09-12T08:10:57;0.82;;;0.80;;
32976;SDS011;47687;50.842;4.450;2022-09-12T08:13:24;0.63;;;0.63;;
32976;SDS011;47687;50.842;4.450;2022-09-12T08:15:57;1.50;;;1.40;;
32976;SDS011;47687;50.842;4.450;2022-09-12T08:18:27;0.85;;;0.85;;
32976;SDS011;47687;50.842;4.450;2022-09-12T08:21:01;0.73;;;0.73;;
32976;SDS011;47687;50.842;4.450;2022-09-12T08:23:29;0.80;;;0.75;;
32976;SDS011;47687;50.842;4.450;2022-09-12T08:25:58;0.82;;;0.82;;
32976;SDS011;47687;50.842;4.450;2022-09-12T08:28:27;0.57;;;0.57;;
32976;SDS011;47687;50.842;4.450;2022-09-12T08:30:53;0.88;;;0.88;;
32976;SDS011;47687;50.842;4.450;2022-09-12T08:33:24;0.80;;;0.80;;
32976;SDS011;47687;50.842;4.450;2022-09-12T08:35:51;1.45;;;0.90;;
32976;SDS011;47687;50.842;4.450;2022-09-12T08:38:16;0.63;;;0.63;;
32976;SDS011;47687;50.842;4.450;2022-09-12T08:40:49;0.43;;;0.38;;
32976;SDS011;47687;50.842;4.450;2022-09-12T08:46:21;0.40;;;0.40;;
32976;SDS011;47687;50.842;4.450;2022-09-12T08:48:51;0.13;;;0.13;;
32976;SDS011;47687;50.842;4.450;2022-09-12T08:51:17;0.40;;;0.40;;
32976;SDS011;47687;50.842;4.450;2022-09-12T08:53:45;0.80;;;0.80;;
32976;SDS011;47687;50.842;4.450;2022-09-12T08:56:13;0.40;;;0.40;;
32976;SDS011;47687;50.842;4.450;2022-09-12T08:58:40;1.00;;;0.90;;
32976;SDS011;47687;50.842;4.450;2022-09-12T09:01:21;0.20;;;0.20;;
32976;SDS011;47687;50.842;4.450;2022-09-12T09:09:36;1.17;;;0.95;;
32976;SDS011;47687;50.842;4.450;2022-09-12T09:12:22;0.75;;;0.73;;
32976;SDS011;47687;50.842;4.450;2022-09-12T09:20:32;1.75;;;0.65;;
32976;SDS011;47687;50.842;4.450;2022-09-12T09:23:01;0.40;;;0.40;;
32976;SDS011;47687;50.842;4.450;2022-09-12T09:25:36;3.10;;;0.73;;
32976;SDS011;47687;50.842;4.450;2022-09-12T09:28:08;1.00;;;0.95;;
32976;SDS011;47687;50.842;4.450;2022-09-12T09:30:47;0.40;;;0.40;;
32976;SDS011;47687;50.842;4.450;2022-09-12T09:33:19;0.20;;;0.20;;
32976;SDS011;47687;50.842;4.450;2022-09-12T09:41:21;0.20;;;0.20;;
32976;SDS011;47687;50.842;4.450;2022-09-12T09:43:49;0.40;;;0.40;;
32976;SDS011;47687;50.842;4.450;2022-09-12T09:46:15;0.70;;;0.70;;
32976;SDS011;47687;50.842;4.450;2022-09-12T09:48:42;0.30;;;0.30;;
32976;SDS011;47687;50.842;4.450;2022-09-12T09:51:11;0.40;;;0.40;;
32976;SDS011;47687;50.842;4.450;2022-09-12T09:59:07;0.40;;;0.40;;
32976;SDS011;47687;50.842;4.450;2022-09-12T10:01:53;0.40;;;0.40;;
32976;SDS011;47687;50.842;4.450;2022-09-12T10:04:28;0.52;;;0.35;;
32976;SDS011;47687;50.842;4.450;2022-09-12T10:06:57;0.20;;;0.20;;
32976;SDS011;47687;50.842;4.450;2022-09-12T10:09:34;0.95;;;0.90;;
32976;SDS011;47687;50.842;4.450;2022-09-12T10:12:00;2.42;;;0.57;;
32976;SDS011;47687;50.842;4.450;2022-09-12T10:14:55;0.40;;;0.40;;
32976;SDS011;47687;50.842;4.450;2022-09-12T10:17:24;0.47;;;0.47;;
32976;SDS011;47687;50.842;4.450;2022-09-12T10:19:56;0.20;;;0.20;;
32976;SDS011;47687;50.842;4.450;2022-09-12T10:22:23;1.25;;;0.57;;
32976;SDS011;47687;50.842;4.450;2022-09-12T10:24:53;0.88;;;0.68;;
32976;SDS011;47687;50.842;4.450;2022-09-12T10:27:24;0.30;;;0.30;;
32976;SDS011;47687;50.842;4.450;2022-09-12T10:30:00;0.20;;;0.20;;
32976;SDS011;47687;50.842;4.450;2022-09-12T10:32:32;0.30;;;0.30;;
32976;SDS011;47687;50.842;4.450;2022-09-12T10:35:06;0.10;;;0.10;;
32976;SDS011;47687;50.842;4.450;2022-09-12T10:37:41;0.30;;;0.30;;
32976;SDS011;47687;50.842;4.450;2022-09-12T10:40:26;0.88;;;0.82;;
32976;SDS011;47687;50.842;4.450;2022-09-12T10:43:50;0.52;;;0.52;;
32976;SDS011;47687;50.842;4.450;2022-09-12T10:46:20;0.38;;;0.38;;
32976;SDS011;47687;50.842;4.450;2022-09-12T10:48:51;0.30;;;0.30;;
32976;SDS011;47687;50.842;4.450;2022-09-12T10:51:37;0.20;;;0.20;;
32976;SDS011;47687;50.842;4.450;2022-09-12T10:54:04;0.57;;;0.57;;
32976;SDS011;47687;50.842;4.450;2022-09-12T10:56:35;0.30;;;0.30;;
32976;SDS011;47687;50.842;4.450;2022-09-12T11:02:00;0.40;;;0.40;;
32976;SDS011;47687;50.842;4.450;2022-09-12T11:07:36;0.10;;;0.10;;
32976;SDS011;47687;50.842;4.450;2022-09-12T11:38:26;0.10;;;0.10;;
32976;SDS011;47687;50.842;4.450;2022-09-12T11:46:28;0.10;;;0.10;;
32976;SDS011;47687;50.842;4.450;2022-09-12T11:54:38;0.68;;;0.68;;
32976;SDS011;47687;50.842;4.450;2022-09-12T11:57:30;0.17;;;0.17;;
32976;SDS011;47687;50.842;4.450;2022-09-12T12:00:18;0.55;;;0.55;;
32976;SDS011;47687;50.842;4.450;2022-09-12T12:05:41;0.10;;;0.10;;
32976;SDS011;47687;50.842;4.450;2022-09-12T12:08:17;0.10;;;0.10;;
32976;SDS011;47687;50.842;4.450;2022-09-12T12:10:58;0.35;;;0.35;;
32976;SDS011;47687;50.842;4.450;2022-09-12T12:16:25;0.20;;;0.20;;
32976;SDS011;47687;50.842;4.450;2022-09-12T12:21:40;0.30;;;0.30;;
32976;SDS011;47687;50.842;4.450;2022-09-12T12:24:23;0.47;;;0.20;;
32976;SDS011;47687;50.842;4.450;2022-09-12T12:34:38;0.10;;;0.10;;
32976;SDS011;47687;50.842;4.450;2022-09-12T12:44:59;0.25;;;0.25;;
32976;SDS011;47687;50.842;4.450;2022-09-12T12:47:31;0.20;;;0.20;;
32976;SDS011;47687;50.842;4.450;2022-09-12T12:49:58;0.10;;;0.10;;
32976;SDS011;47687;50.842;4.450;2022-09-12T12:55:26;0.10;;;0.10;;
32976;SDS011;47687;50.842;4.450;2022-09-12T12:58:27;0.40;;;0.40;;
32976;SDS011;47687;50.842;4.450;2022-09-12T13:01:11;0.10;;;0.10;;
32976;SDS011;47687;50.842;4.450;2022-09-12T13:03:42;0.10;;;0.10;;
32976;SDS011;47687;50.842;4.450;2022-09-12T13:09:02;0.10;;;0.10;;
32976;SDS011;47687;50.842;4.450;2022-09-12T13:11:36;0.10;;;0.10;;
32976;SDS011;47687;50.842;4.450;2022-09-12T13:14:03;0.10;;;0.10;;
32976;SDS011;47687;50.842;4.450;2022-09-12T13:16:37;0.10;;;0.10;;
32976;SDS011;47687;50.842;4.450;2022-09-12T13:19:05;0.10;;;0.10;;
32976;SDS011;47687;50.842;4.450;2022-09-12T13:21:38;0.15;;;0.15;;
32976;SDS011;47687;50.842;4.450;2022-09-12T13:24:19;0.10;;;0.10;;
32976;SDS011;47687;50.842;4.450;2022-09-12T13:26:47;0.10;;;0.10;;
32976;SDS011;47687;50.842;4.450;2022-09-12T13:29:20;0.38;;;0.38;;
32976;SDS011;47687;50.842;4.450;2022-09-12T13:31:48;0.10;;;0.10;;
32976;SDS011;47687;50.842;4.450;2022-09-12T13:34:26;0.10;;;0.10;;
32976;SDS011;47687;50.842;4.450;2022-09-12T13:36:56;0.30;;;0.30;;
32976;SDS011;47687;50.842;4.450;2022-09-12T13:45:00;0.20;;;0.20;;
32976;SDS011;47687;50.842;4.450;2022-09-12T13:47:39;0.13;;;0.13;;
32976;SDS011;47687;50.842;4.450;2022-09-12T13:50:17;0.10;;;0.10;;
32976;SDS011;47687;50.842;4.450;2022-09-12T13:52:58;0.15;;;0.15;;
32976;SDS011;47687;50.842;4.450;2022-09-12T13:57:56;0.57;;;0.57;;
32976;SDS011;47687;50.842;4.450;2022-09-12T14:00:27;0.25;;;0.25;;
32976;SDS011;47687;50.842;4.450;2022-09-12T14:02:55;2.53;;;0.88;;
32976;SDS011;47687;50.842;4.450;2022-09-12T14:05:53;0.32;;;0.28;;
32976;SDS011;47687;50.842;4.450;2022-09-12T14:08:20;0.52;;;0.50;;
32976;SDS011;47687;50.842;4.450;2022-09-12T14:10:47;0.35;;;0.20;;
32976;SDS011;47687;50.842;4.450;2022-09-12T14:13:15;0.10;;;0.10;;
32976;SDS011;47687;50.842;4.450;2022-09-12T14:15:48;0.30;;;0.30;;
32976;SDS011;47687;50.842;4.450;2022-09-12T14:20:52;0.35;;;0.22;;
32976;SDS011;47687;50.842;4.450;2022-09-12T14:23:30;0.85;;;0.82;;
32976;SDS011;47687;50.842;4.450;2022-09-12T14:25:59;0.25;;;0.25;;
32976;SDS011;47687;50.842;4.450;2022-09-12T14:28:28;0.30;;;0.30;;
32976;SDS011;47687;50.842;4.450;2022-09-12T14:30:59;0.10;;;0.10;;
32976;SDS011;47687;50.842;4.450;2022-09-12T14:33:27;0.20;;;0.20;;
32976;SDS011;47687;50.842;4.450;2022-09-12T14:36:08;0.20;;;0.20;;
32976;SDS011;47687;50.842;4.450;2022-09-12T14:38:44;0.20;;;0.20;;
32976;SDS011;47687;50.842;4.450;2022-09-12T14:41:19;0.65;;;0.20;;
32976;SDS011;47687;50.842;4.450;2022-09-12T14:44:14;0.20;;;0.20;;
32976;SDS011;47687;50.842;4.450;2022-09-12T14:46:47;0.73;;;0.50;;
32976;SDS011;47687;50.842;4.450;2022-09-12T14:49:14;7.13;;;0.75;;
32976;SDS011;47687;50.842;4.450;2022-09-12T14:51:59;0.10;;;0.10;;
32976;SDS011;47687;50.842;4.450;2022-09-12T14:56:55;0.13;;;0.13;;
32976;SDS011;47687;50.842;4.450;2022-09-12T15:04:46;0.30;;;0.30;;
32976;SDS011;47687;50.842;4.450;2022-09-12T15:07:32;0.20;;;0.20;;
32976;SDS011;47687;50.842;4.450;2022-09-12T15:10:49;7.22;;;0.52;;
32976;SDS011;47687;50.842;4.450;2022-09-12T15:15:33;0.20;;;0.20;;
32976;SDS011;47687;50.842;4.450;2022-09-12T15:17:59;0.20;;;0.20;;
32976;SDS011;47687;50.842;4.450;2022-09-12T15:20:25;0.10;;;0.10;;
32976;SDS011;47687;50.842;4.450;2022-09-12T15:22:50;0.10;;;0.10;;
32976;SDS011;47687;50.842;4.450;2022-09-12T15:25:16;0.25;;;0.22;;
32976;SDS011;47687;50.842;4.450;2022-09-12T15:27:42;0.25;;;0.25;;
32976;SDS011;47687;50.842;4.450;2022-09-12T15:30:09;0.10;;;0.10;;
32976;SDS011;47687;50.842;4.450;2022-09-12T15:32:36;0.10;;;0.10;;
32976;SDS011;47687;50.842;4.450;2022-09-12T15:35:04;0.10;;;0.10;;
32976;SDS011;47687;50.842;4.450;2022-09-12T15:37:40;0.10;;;0.10;;
32976;SDS011;47687;50.842;4.450;2022-09-12T15:40:06;0.10;;;0.10;;
32976;SDS011;47687;50.842;4.450;2022-09-12T15:42:33;0.10;;;0.10;;
32976;SDS011;47687;50.842;4.450;2022-09-12T15:44:58;0.40;;;0.40;;
32976;SDS011;47687;50.842;4.450;2022-09-12T15:47:24;0.85;;;0.68;;
32976;SDS011;47687;50.842;4.450;2022-09-12T15:49:50;0.80;;;0.25;;
32976;SDS011;47687;50.842;4.450;2022-09-12T15:52:15;0.20;;;0.20;;
32976;SDS011;47687;50.842;4.450;2022-09-12T15:54:41;0.20;;;0.20;;
32976;SDS011;47687;50.842;4.450;2022-09-12T15:57:07;0.10;;;0.10;;
32976;SDS011;47687;50.842;4.450;2022-09-12T15:59:34;0.10;;;0.10;;
32976;SDS011;47687;50.842;4.450;2022-09-12T16:01:59;0.55;;;0.55;;
32976;SDS011;47687;50.842;4.450;2022-09-12T16:04:26;0.43;;;0.43;;
32976;SDS011;47687;50.842;4.450;2022-09-12T16:06:53;0.25;;;0.25;;
32976;SDS011;47687;50.842;4.450;2022-09-12T16:09:20;0.25;;;0.25;;
32976;SDS011;47687;50.842;4.450;2022-09-12T16:11:46;0.65;;;0.63;;
32976;SDS011;47687;50.842;4.450;2022-09-12T16:14:16;0.10;;;0.10;;
32976;SDS011;47687;50.842;4.450;2022-09-12T16:16:43;0.35;;;0.35;;
32976;SDS011;47687;50.842;4.450;2022-09-12T16:19:09;0.25;;;0.25;;
32976;SDS011;47687;50.842;4.450;2022-09-12T16:21:35;0.10;;;0.10;;
32976;SDS011;47687;50.842;4.450;2022-09-12T16:24:01;0.10;;;0.10;;
32976;SDS011;47687;50.842;4.450;2022-09-12T16:26:26;0.10;;;0.10;;
32976;SDS011;47687;50.842;4.450;2022-09-12T16:28:56;1.08;;;0.60;;
32976;SDS011;47687;50.842;4.450;2022-09-12T16:33:48;0.25;;;0.25;;
32976;SDS011;47687;50.842;4.450;2022-09-12T16:36:15;0.40;;;0.40;;
32976;SDS011;47687;50.842;4.450;2022-09-12T16:38:46;0.60;;;0.47;;
32976;SDS011;47687;50.842;4.450;2022-09-12T16:41:13;2.90;;;1.48;;
32976;SDS011;47687;50.842;4.450;2022-09-12T16:43:40;0.10;;;0.10;;
32976;SDS011;47687;50.842;4.450;2022-09-12T16:46:17;0.10;;;0.10;;
32976;SDS011;47687;50.842;4.450;2022-09-12T16:48:45;1.27;;;1.00;;
32976;SDS011;47687;50.842;4.450;2022-09-12T16:51:15;1.60;;;1.42;;
32976;SDS011;47687;50.842;4.450;2022-09-12T16:53:44;0.10;;;0.10;;
32976;SDS011;47687;50.842;4.450;2022-09-12T16:56:10;0.20;;;0.20;;
32976;SDS011;47687;50.842;4.450;2022-09-12T16:58:36;0.45;;;0.45;;
32976;SDS011;47687;50.842;4.450;2022-09-12T17:01:04;0.17;;;0.17;;
32976;SDS011;47687;50.842;4.450;2022-09-12T17:03:32;0.15;;;0.15;;
32976;SDS011;47687;50.842;4.450;2022-09-12T17:06:08;0.40;;;0.40;;
32976;SDS011;47687;50.842;4.450;2022-09-12T17:08:35;0.40;;;0.40;;
32976;SDS011;47687;50.842;4.450;2022-09-12T17:11:03;6.22;;;1.05;;
32976;SDS011;47687;50.842;4.450;2022-09-12T17:13:30;1.15;;;0.80;;
32976;SDS011;47687;50.842;4.450;2022-09-12T17:15:56;1.25;;;0.63;;
32976;SDS011;47687;50.842;4.450;2022-09-12T17:18:22;5.80;;;0.95;;
32976;SDS011;47687;50.842;4.450;2022-09-12T17:20:48;0.20;;;0.15;;
32976;SDS011;47687;50.842;4.450;2022-09-12T17:23:14;0.30;;;0.30;;
32976;SDS011;47687;50.842;4.450;2022-09-12T17:25:40;0.85;;;0.32;;
32976;SDS011;47687;50.842;4.450;2022-09-12T17:28:13;1.73;;;0.57;;
32976;SDS011;47687;50.842;4.450;2022-09-12T17:30:39;0.57;;;0.20;;
32976;SDS011;47687;50.842;4.450;2022-09-12T17:33:05;0.10;;;0.10;;
32976;SDS011;47687;50.842;4.450;2022-09-12T17:35:34;0.13;;;0.13;;
32976;SDS011;47687;50.842;4.450;2022-09-12T17:38:00;0.93;;;0.50;;
32976;SDS011;47687;50.842;4.450;2022-09-12T17:40:26;0.25;;;0.25;;
32976;SDS011;47687;50.842;4.450;2022-09-12T17:42:52;0.65;;;0.25;;
32976;SDS011;47687;50.842;4.450;2022-09-12T17:45:18;0.25;;;0.25;;
32976;SDS011;47687;50.842;4.450;2022-09-12T17:47:44;0.10;;;0.10;;
32976;SDS011;47687;50.842;4.450;2022-09-12T17:50:10;0.10;;;0.10;;
32976;SDS011;47687;50.842;4.450;2022-09-12T17:52:35;0.30;;;0.30;;
32976;SDS011;47687;50.842;4.450;2022-09-12T17:55:01;0.10;;;0.10;;
32976;SDS011;47687;50.842;4.450;2022-09-12T17:57:27;0.10;;;0.10;;